sensor_id;sensor_type;location;lat;lon;timestamp;P1;durP1;ratioP1;P2;durP2;ratioP2
45296;SDS011;31040;51.622;10.420;2023-06-10T00:02:14;5.30;;;3.45;;
45296;SDS011;31040;51.622;10.420;2023-06-10T00:04:43;2.92;;;2.30;;
45296;SDS011;31040;51.622;10.420;2023-06-10T00:07:11;3.35;;;2.85;;
45296;SDS011;31040;51.622;10.420;2023-06-10T00:09:39;4.63;;;3.05;;
45296;SDS011;31040;51.622;10.420;2023-06-10T00:12:07;3.22;;;2.88;;
45296;SDS011;31040;51.622;10.420;2023-06-10T00:14:37;4.93;;;3.03;;
45296;SDS011;31040;51.622;10.420;2023-06-10T00:17:05;3.55;;;2.78;;
45296;SDS011;31040;51.622;10.420;2023-06-10T00:19:36;4.55;;;2.92;;
45296;SDS011;31040;51.622;10.420;2023-06-10T00:22:08;4.05;;;3.00;;
45296;SDS011;31040;51.622;10.420;2023-06-10T00:24:38;6.75;;;2.90;;
45296;SDS011;31040;51.622;10.420;2023-06-10T00:27:09;3.47;;;2.72;;
45296;SDS011;31040;51.622;10.420;2023-06-10T00:29:37;2.65;;;2.30;;
45296;SDS011;31040;51.622;10.420;2023-06-10T00:32:05;3.58;;;2.55;;
45296;SDS011;31040;51.622;10.420;2023-06-10T00:34:33;4.30;;;2.78;;
45296;SDS011;31040;51.622;10.420;2023-06-10T00:37:01;3.15;;;2.83;;
45296;SDS011;31040;51.622;10.420;2023-06-10T00:39:29;3.13;;;2.67;;
45296;SDS011;31040;51.622;10.420;2023-06-10T00:41:59;4.25;;;2.88;;
45296;SDS011;31040;51.622;10.420;2023-06-10T00:44:27;4.85;;;2.55;;
45296;SDS011;31040;51.622;10.420;2023-06-10T00:46:54;3.80;;;2.33;;
45296;SDS011;31040;51.622;10.420;2023-06-10T00:49:22;4.53;;;2.25;;
45296;SDS011;31040;51.622;10.420;2023-06-10T00:51:50;2.55;;;2.35;;
45296;SDS011;31040;51.622;10.420;2023-06-10T00:54:18;3.50;;;2.55;;
45296;SDS011;31040;51.622;10.420;2023-06-10T00:56:49;3.92;;;2.45;;
45296;SDS011;31040;51.622;10.420;2023-06-10T00:59:17;2.78;;;2.40;;
45296;SDS011;31040;51.622;10.420;2023-06-10T01:01:45;2.85;;;1.90;;
45296;SDS011;31040;51.622;10.420;2023-06-10T01:04:16;3.28;;;2.50;;
45296;SDS011;31040;51.622;10.420;2023-06-10T01:09:24;2.55;;;2.20;;
45296;SDS011;31040;51.622;10.420;2023-06-10T01:14:27;3.25;;;2.00;;
45296;SDS011;31040;51.622;10.420;2023-06-10T01:16:54;2.20;;;1.95;;
45296;SDS011;31040;51.622;10.420;2023-06-10T01:19:23;2.95;;;2.20;;
45296;SDS011;31040;51.622;10.420;2023-06-10T01:21:51;3.25;;;1.90;;
45296;SDS011;31040;51.622;10.420;2023-06-10T01:24:18;2.38;;;1.92;;
45296;SDS011;31040;51.622;10.420;2023-06-10T01:26:46;2.17;;;2.00;;
45296;SDS011;31040;51.622;10.420;2023-06-10T01:29:17;2.92;;;2.40;;
45296;SDS011;31040;51.622;10.420;2023-06-10T01:31:53;3.05;;;2.05;;
45296;SDS011;31040;51.622;10.420;2023-06-10T01:34:24;3.15;;;2.85;;
45296;SDS011;31040;51.622;10.420;2023-06-10T01:36:52;5.00;;;2.65;;
45296;SDS011;31040;51.622;10.420;2023-06-10T01:39:24;6.15;;;3.00;;
45296;SDS011;31040;51.622;10.420;2023-06-10T01:41:52;4.85;;;2.25;;
45296;SDS011;31040;51.622;10.420;2023-06-10T01:44:20;3.40;;;2.20;;
45296;SDS011;31040;51.622;10.420;2023-06-10T01:46:48;6.70;;;3.05;;
45296;SDS011;31040;51.622;10.420;2023-06-10T01:49:15;5.38;;;2.67;;
45296;SDS011;31040;51.622;10.420;2023-06-10T01:51:43;4.82;;;3.05;;
45296;SDS011;31040;51.622;10.420;2023-06-10T01:54:10;4.05;;;2.63;;
45296;SDS011;31040;51.622;10.420;2023-06-10T01:56:38;3.33;;;2.30;;
45296;SDS011;31040;51.622;10.420;2023-06-10T01:59:05;5.05;;;2.22;;
45296;SDS011;31040;51.622;10.420;2023-06-10T02:01:33;4.35;;;2.83;;
45296;SDS011;31040;51.622;10.420;2023-06-10T02:04:00;4.30;;;2.60;;
45296;SDS011;31040;51.622;10.420;2023-06-10T02:06:28;4.28;;;2.63;;
45296;SDS011;31040;51.622;10.420;2023-06-10T02:08:56;3.72;;;2.28;;
45296;SDS011;31040;51.622;10.420;2023-06-10T02:11:24;4.65;;;2.35;;
45296;SDS011;31040;51.622;10.420;2023-06-10T02:13:53;2.80;;;2.55;;
45296;SDS011;31040;51.622;10.420;2023-06-10T02:16:20;2.42;;;2.13;;
45296;SDS011;31040;51.622;10.420;2023-06-10T02:18:48;2.63;;;2.08;;
45296;SDS011;31040;51.622;10.420;2023-06-10T02:21:15;4.43;;;2.50;;
45296;SDS011;31040;51.622;10.420;2023-06-10T02:23:43;3.42;;;2.10;;
45296;SDS011;31040;51.622;10.420;2023-06-10T02:26:10;6.13;;;2.25;;
45296;SDS011;31040;51.622;10.420;2023-06-10T02:28:38;3.10;;;2.28;;
45296;SDS011;31040;51.622;10.420;2023-06-10T02:31:05;2.70;;;2.10;;
45296;SDS011;31040;51.622;10.420;2023-06-10T02:33:33;2.95;;;2.50;;
45296;SDS011;31040;51.622;10.420;2023-06-10T02:36:00;4.60;;;2.33;;
45296;SDS011;31040;51.622;10.420;2023-06-10T02:38:28;4.65;;;2.60;;
45296;SDS011;31040;51.622;10.420;2023-06-10T02:40:55;2.90;;;2.58;;
45296;SDS011;31040;51.622;10.420;2023-06-10T02:43:23;3.92;;;2.65;;
45296;SDS011;31040;51.622;10.420;2023-06-10T02:45:50;6.18;;;3.22;;
45296;SDS011;31040;51.622;10.420;2023-06-10T02:48:18;5.05;;;2.80;;
45296;SDS011;31040;51.622;10.420;2023-06-10T02:50:46;3.72;;;2.63;;
45296;SDS011;31040;51.622;10.420;2023-06-10T02:53:13;5.75;;;3.55;;
45296;SDS011;31040;51.622;10.420;2023-06-10T02:55:41;4.97;;;3.30;;
45296;SDS011;31040;51.622;10.420;2023-06-10T02:58:09;4.30;;;3.28;;
45296;SDS011;31040;51.622;10.420;2023-06-10T03:00:36;6.22;;;3.30;;
45296;SDS011;31040;51.622;10.420;2023-06-10T03:03:05;4.68;;;2.65;;
45296;SDS011;31040;51.622;10.420;2023-06-10T03:05:33;3.05;;;2.45;;
45296;SDS011;31040;51.622;10.420;2023-06-10T03:08:00;3.85;;;2.80;;
45296;SDS011;31040;51.622;10.420;2023-06-10T03:10:31;2.80;;;2.50;;
45296;SDS011;31040;51.622;10.420;2023-06-10T03:12:59;4.72;;;2.50;;
45296;SDS011;31040;51.622;10.420;2023-06-10T03:15:26;3.33;;;2.40;;
45296;SDS011;31040;51.622;10.420;2023-06-10T03:17:59;3.10;;;2.13;;
45296;SDS011;31040;51.622;10.420;2023-06-10T03:20:27;6.13;;;2.85;;
45296;SDS011;31040;51.622;10.420;2023-06-10T03:22:56;3.85;;;2.55;;
45296;SDS011;31040;51.622;10.420;2023-06-10T03:25:24;3.22;;;2.35;;
45296;SDS011;31040;51.622;10.420;2023-06-10T03:27:52;4.68;;;2.30;;
45296;SDS011;31040;51.622;10.420;2023-06-10T03:30:19;3.30;;;2.40;;
45296;SDS011;31040;51.622;10.420;2023-06-10T03:32:47;3.70;;;3.30;;
45296;SDS011;31040;51.622;10.420;2023-06-10T03:35:15;2.90;;;2.13;;
45296;SDS011;31040;51.622;10.420;2023-06-10T03:37:44;4.68;;;2.60;;
45296;SDS011;31040;51.622;10.420;2023-06-10T03:40:12;3.70;;;2.28;;
45296;SDS011;31040;51.622;10.420;2023-06-10T03:42:39;3.75;;;2.40;;
45296;SDS011;31040;51.622;10.420;2023-06-10T03:45:07;5.25;;;2.42;;
45296;SDS011;31040;51.622;10.420;2023-06-10T03:47:36;3.95;;;2.20;;
45296;SDS011;31040;51.622;10.420;2023-06-10T03:50:04;4.10;;;2.50;;
45296;SDS011;31040;51.622;10.420;2023-06-10T03:52:32;2.90;;;2.60;;
45296;SDS011;31040;51.622;10.420;2023-06-10T03:54:59;3.25;;;2.67;;
45296;SDS011;31040;51.622;10.420;2023-06-10T03:57:27;3.83;;;2.40;;
45296;SDS011;31040;51.622;10.420;2023-06-10T03:59:54;3.38;;;2.60;;
45296;SDS011;31040;51.622;10.420;2023-06-10T04:02:22;5.40;;;2.40;;
45296;SDS011;31040;51.622;10.420;2023-06-10T04:04:50;3.15;;;2.63;;
45296;SDS011;31040;51.622;10.420;2023-06-10T04:07:18;9.15;;;2.78;;
45296;SDS011;31040;51.622;10.420;2023-06-10T04:09:46;3.78;;;2.70;;
45296;SDS011;31040;51.622;10.420;2023-06-10T04:12:14;5.82;;;2.55;;
45296;SDS011;31040;51.622;10.420;2023-06-10T04:14:43;9.52;;;3.35;;
45296;SDS011;31040;51.622;10.420;2023-06-10T04:17:10;4.20;;;2.53;;
45296;SDS011;31040;51.622;10.420;2023-06-10T04:19:41;5.97;;;2.50;;
45296;SDS011;31040;51.622;10.420;2023-06-10T04:22:09;4.82;;;2.50;;
45296;SDS011;31040;51.622;10.420;2023-06-10T04:24:36;6.07;;;2.63;;
45296;SDS011;31040;51.622;10.420;2023-06-10T04:27:04;7.82;;;2.67;;
45296;SDS011;31040;51.622;10.420;2023-06-10T04:29:32;2.75;;;2.50;;
45296;SDS011;31040;51.622;10.420;2023-06-10T04:31:59;6.95;;;3.20;;
45296;SDS011;31040;51.622;10.420;2023-06-10T04:34:28;4.20;;;3.13;;
45296;SDS011;31040;51.622;10.420;2023-06-10T04:36:55;4.35;;;3.00;;
45296;SDS011;31040;51.622;10.420;2023-06-10T04:39:25;10.32;;;3.20;;
45296;SDS011;31040;51.622;10.420;2023-06-10T04:41:54;4.28;;;2.88;;
45296;SDS011;31040;51.622;10.420;2023-06-10T04:44:21;16.08;;;3.80;;
45296;SDS011;31040;51.622;10.420;2023-06-10T04:46:52;9.30;;;3.45;;
45296;SDS011;31040;51.622;10.420;2023-06-10T04:49:22;5.05;;;3.20;;
45296;SDS011;31040;51.622;10.420;2023-06-10T04:51:50;11.32;;;3.40;;
45296;SDS011;31040;51.622;10.420;2023-06-10T04:54:17;4.63;;;2.78;;
45296;SDS011;31040;51.622;10.420;2023-06-10T04:56:45;3.90;;;2.92;;
45296;SDS011;31040;51.622;10.420;2023-06-10T04:59:13;5.57;;;2.80;;
45296;SDS011;31040;51.622;10.420;2023-06-10T05:01:41;9.30;;;3.83;;
45296;SDS011;31040;51.622;10.420;2023-06-10T05:04:10;4.38;;;2.70;;
45296;SDS011;31040;51.622;10.420;2023-06-10T05:06:37;5.97;;;3.15;;
45296;SDS011;31040;51.622;10.420;2023-06-10T05:09:05;5.35;;;3.10;;
45296;SDS011;31040;51.622;10.420;2023-06-10T05:11:32;2.75;;;2.50;;
45296;SDS011;31040;51.622;10.420;2023-06-10T05:14:00;6.30;;;2.35;;
45296;SDS011;31040;51.622;10.420;2023-06-10T05:16:29;3.47;;;3.13;;
45296;SDS011;31040;51.622;10.420;2023-06-10T05:18:57;4.55;;;3.30;;
45296;SDS011;31040;51.622;10.420;2023-06-10T05:21:48;4.30;;;3.30;;
45296;SDS011;31040;51.622;10.420;2023-06-10T05:24:16;5.10;;;3.30;;
45296;SDS011;31040;51.622;10.420;2023-06-10T05:26:43;4.47;;;3.13;;
45296;SDS011;31040;51.622;10.420;2023-06-10T05:29:11;3.50;;;3.15;;
45296;SDS011;31040;51.622;10.420;2023-06-10T05:31:39;4.20;;;2.95;;
45296;SDS011;31040;51.622;10.420;2023-06-10T05:34:06;2.92;;;2.65;;
45296;SDS011;31040;51.622;10.420;2023-06-10T05:36:34;4.85;;;2.97;;
45296;SDS011;31040;51.622;10.420;2023-06-10T05:39:02;5.88;;;3.20;;
45296;SDS011;31040;51.622;10.420;2023-06-10T05:41:29;4.25;;;2.85;;
45296;SDS011;31040;51.622;10.420;2023-06-10T05:43:57;3.25;;;2.90;;
45296;SDS011;31040;51.622;10.420;2023-06-10T05:46:25;3.80;;;3.20;;
45296;SDS011;31040;51.622;10.420;2023-06-10T05:48:53;3.65;;;3.13;;
45296;SDS011;31040;51.622;10.420;2023-06-10T05:51:21;3.42;;;3.05;;
45296;SDS011;31040;51.622;10.420;2023-06-10T05:53:49;3.92;;;3.10;;
45296;SDS011;31040;51.622;10.420;2023-06-10T05:56:16;7.68;;;3.47;;
45296;SDS011;31040;51.622;10.420;2023-06-10T05:58:44;3.70;;;3.28;;
45296;SDS011;31040;51.622;10.420;2023-06-10T06:01:11;4.97;;;3.80;;
45296;SDS011;31040;51.622;10.420;2023-06-10T06:03:39;7.88;;;3.85;;
45296;SDS011;31040;51.622;10.420;2023-06-10T06:06:10;4.47;;;3.55;;
45296;SDS011;31040;51.622;10.420;2023-06-10T06:08:38;7.68;;;4.05;;
45296;SDS011;31040;51.622;10.420;2023-06-10T06:11:06;4.85;;;3.50;;
45296;SDS011;31040;51.622;10.420;2023-06-10T06:13:34;5.90;;;3.65;;
45296;SDS011;31040;51.622;10.420;2023-06-10T06:16:01;4.47;;;3.72;;
45296;SDS011;31040;51.622;10.420;2023-06-10T06:18:29;4.13;;;3.20;;
45296;SDS011;31040;51.622;10.420;2023-06-10T06:20:58;5.28;;;4.05;;
45296;SDS011;31040;51.622;10.420;2023-06-10T06:23:26;5.25;;;3.67;;
45296;SDS011;31040;51.622;10.420;2023-06-10T06:25:54;10.63;;;3.97;;
45296;SDS011;31040;51.622;10.420;2023-06-10T06:28:21;4.10;;;3.70;;
45296;SDS011;31040;51.622;10.420;2023-06-10T06:30:49;5.60;;;4.07;;
45296;SDS011;31040;51.622;10.420;2023-06-10T06:33:16;5.60;;;4.05;;
45296;SDS011;31040;51.622;10.420;2023-06-10T06:35:44;3.97;;;3.50;;
45296;SDS011;31040;51.622;10.420;2023-06-10T06:38:12;3.92;;;3.20;;
45296;SDS011;31040;51.622;10.420;2023-06-10T06:40:40;18.27;;;6.32;;
45296;SDS011;31040;51.622;10.420;2023-06-10T06:43:07;8.50;;;3.50;;
45296;SDS011;31040;51.622;10.420;2023-06-10T06:45:44;6.18;;;3.80;;
45296;SDS011;31040;51.622;10.420;2023-06-10T06:48:14;11.75;;;4.85;;
45296;SDS011;31040;51.622;10.420;2023-06-10T06:50:50;15.85;;;5.05;;
45296;SDS011;31040;51.622;10.420;2023-06-10T06:53:18;12.05;;;5.22;;
45296;SDS011;31040;51.622;10.420;2023-06-10T06:55:48;8.27;;;4.50;;
45296;SDS011;31040;51.622;10.420;2023-06-10T06:58:16;6.93;;;4.55;;
45296;SDS011;31040;51.622;10.420;2023-06-10T07:00:43;4.70;;;4.30;;
45296;SDS011;31040;51.622;10.420;2023-06-10T07:03:11;6.30;;;4.25;;
45296;SDS011;31040;51.622;10.420;2023-06-10T07:05:41;4.75;;;3.85;;
45296;SDS011;31040;51.622;10.420;2023-06-10T07:08:09;7.53;;;4.38;;
45296;SDS011;31040;51.622;10.420;2023-06-10T07:10:38;4.65;;;4.25;;
45296;SDS011;31040;51.622;10.420;2023-06-10T07:13:06;4.68;;;4.03;;
45296;SDS011;31040;51.622;10.420;2023-06-10T07:15:34;3.97;;;3.65;;
45296;SDS011;31040;51.622;10.420;2023-06-10T07:18:05;4.25;;;3.75;;
45296;SDS011;31040;51.622;10.420;2023-06-10T07:20:37;4.32;;;3.83;;
45296;SDS011;31040;51.622;10.420;2023-06-10T07:23:15;5.22;;;4.10;;
45296;SDS011;31040;51.622;10.420;2023-06-10T07:25:43;4.88;;;4.20;;
45296;SDS011;31040;51.622;10.420;2023-06-10T07:28:11;4.70;;;4.13;;
45296;SDS011;31040;51.622;10.420;2023-06-10T07:30:38;4.50;;;3.63;;
45296;SDS011;31040;51.622;10.420;2023-06-10T07:33:12;5.18;;;3.72;;
45296;SDS011;31040;51.622;10.420;2023-06-10T07:35:41;4.70;;;4.30;;
45296;SDS011;31040;51.622;10.420;2023-06-10T07:38:27;6.22;;;4.45;;
45296;SDS011;31040;51.622;10.420;2023-06-10T07:41:01;4.53;;;4.13;;
45296;SDS011;31040;51.622;10.420;2023-06-10T07:43:41;4.35;;;3.80;;
45296;SDS011;31040;51.622;10.420;2023-06-10T07:46:27;5.22;;;3.95;;
45296;SDS011;31040;51.622;10.420;2023-06-10T07:49:20;6.15;;;4.22;;
45296;SDS011;31040;51.622;10.420;2023-06-10T07:52:20;6.57;;;4.15;;
45296;SDS011;31040;51.622;10.420;2023-06-10T07:54:47;6.57;;;4.25;;
45296;SDS011;31040;51.622;10.420;2023-06-10T07:57:15;6.10;;;4.63;;
45296;SDS011;31040;51.622;10.420;2023-06-10T07:59:42;7.40;;;5.25;;
45296;SDS011;31040;51.622;10.420;2023-06-10T08:02:10;7.75;;;4.93;;
45296;SDS011;31040;51.622;10.420;2023-06-10T08:04:38;6.55;;;4.55;;
45296;SDS011;31040;51.622;10.420;2023-06-10T08:07:05;5.55;;;4.70;;
45296;SDS011;31040;51.622;10.420;2023-06-10T08:09:33;5.75;;;4.75;;
45296;SDS011;31040;51.622;10.420;2023-06-10T08:12:01;5.10;;;4.65;;
45296;SDS011;31040;51.622;10.420;2023-06-10T08:14:28;6.13;;;5.15;;
45296;SDS011;31040;51.622;10.420;2023-06-10T08:16:56;5.32;;;4.38;;
45296;SDS011;31040;51.622;10.420;2023-06-10T08:19:24;6.95;;;5.10;;
45296;SDS011;31040;51.622;10.420;2023-06-10T08:21:51;6.90;;;4.85;;
45296;SDS011;31040;51.622;10.420;2023-06-10T08:24:19;5.32;;;4.57;;
45296;SDS011;31040;51.622;10.420;2023-06-10T08:26:46;6.45;;;4.70;;
45296;SDS011;31040;51.622;10.420;2023-06-10T08:29:14;5.60;;;4.95;;
45296;SDS011;31040;51.622;10.420;2023-06-10T08:31:44;6.45;;;4.85;;
45296;SDS011;31040;51.622;10.420;2023-06-10T08:34:12;5.38;;;4.47;;
45296;SDS011;31040;51.622;10.420;2023-06-10T08:36:39;6.88;;;4.93;;
45296;SDS011;31040;51.622;10.420;2023-06-10T08:39:07;6.30;;;5.47;;
45296;SDS011;31040;51.622;10.420;2023-06-10T08:41:40;8.07;;;5.22;;
45296;SDS011;31040;51.622;10.420;2023-06-10T08:46:36;8.75;;;5.18;;
45296;SDS011;31040;51.622;10.420;2023-06-10T08:49:05;5.30;;;4.80;;
45296;SDS011;31040;51.622;10.420;2023-06-10T08:51:34;6.32;;;5.20;;
45296;SDS011;31040;51.622;10.420;2023-06-10T08:54:25;8.23;;;5.38;;
45296;SDS011;31040;51.622;10.420;2023-06-10T08:56:55;7.45;;;5.90;;
45296;SDS011;31040;51.622;10.420;2023-06-10T08:59:23;5.53;;;5.03;;
45296;SDS011;31040;51.622;10.420;2023-06-10T09:01:51;6.25;;;5.57;;
45296;SDS011;31040;51.622;10.420;2023-06-10T09:04:19;9.02;;;5.40;;
45296;SDS011;31040;51.622;10.420;2023-06-10T09:06:47;5.55;;;5.05;;
45296;SDS011;31040;51.622;10.420;2023-06-10T09:09:16;6.53;;;5.20;;
45296;SDS011;31040;51.622;10.420;2023-06-10T09:11:44;6.45;;;5.65;;
45296;SDS011;31040;51.622;10.420;2023-06-10T09:14:11;6.63;;;5.78;;
45296;SDS011;31040;51.622;10.420;2023-06-10T09:16:39;6.38;;;5.15;;
45296;SDS011;31040;51.622;10.420;2023-06-10T09:19:07;7.03;;;5.60;;
45296;SDS011;31040;51.622;10.420;2023-06-10T09:21:35;6.90;;;5.40;;
45296;SDS011;31040;51.622;10.420;2023-06-10T09:24:03;6.60;;;5.32;;
45296;SDS011;31040;51.622;10.420;2023-06-10T09:26:31;6.50;;;5.78;;
45296;SDS011;31040;51.622;10.420;2023-06-10T09:29:07;8.07;;;5.40;;
45296;SDS011;31040;51.622;10.420;2023-06-10T09:31:36;6.10;;;5.50;;
45296;SDS011;31040;51.622;10.420;2023-06-10T09:34:08;5.93;;;5.43;;
45296;SDS011;31040;51.622;10.420;2023-06-10T09:36:36;6.43;;;5.82;;
45296;SDS011;31040;51.622;10.420;2023-06-10T09:39:04;6.00;;;5.55;;
45296;SDS011;31040;51.622;10.420;2023-06-10T09:41:35;6.82;;;5.93;;
45296;SDS011;31040;51.622;10.420;2023-06-10T09:44:05;7.28;;;5.75;;
45296;SDS011;31040;51.622;10.420;2023-06-10T09:46:36;7.10;;;5.63;;
45296;SDS011;31040;51.622;10.420;2023-06-10T09:49:04;7.38;;;6.75;;
45296;SDS011;31040;51.622;10.420;2023-06-10T09:51:31;7.43;;;5.25;;
45296;SDS011;31040;51.622;10.420;2023-06-10T09:53:59;6.07;;;5.57;;
45296;SDS011;31040;51.622;10.420;2023-06-10T09:56:32;10.25;;;5.65;;
45296;SDS011;31040;51.622;10.420;2023-06-10T09:59:00;5.82;;;5.32;;
45296;SDS011;31040;51.622;10.420;2023-06-10T10:01:29;12.30;;;6.28;;
45296;SDS011;31040;51.622;10.420;2023-06-10T10:03:58;5.38;;;4.88;;
45296;SDS011;31040;51.622;10.420;2023-06-10T10:06:25;5.68;;;5.10;;
45296;SDS011;31040;51.622;10.420;2023-06-10T10:08:53;6.95;;;6.28;;
45296;SDS011;31040;51.622;10.420;2023-06-10T10:11:21;6.03;;;5.43;;
45296;SDS011;31040;51.622;10.420;2023-06-10T10:13:49;5.70;;;5.10;;
45296;SDS011;31040;51.622;10.420;2023-06-10T10:16:17;6.00;;;5.38;;
45296;SDS011;31040;51.622;10.420;2023-06-10T10:18:49;7.35;;;5.50;;
45296;SDS011;31040;51.622;10.420;2023-06-10T10:21:20;9.25;;;5.70;;
45296;SDS011;31040;51.622;10.420;2023-06-10T10:26:16;6.68;;;5.93;;
45296;SDS011;31040;51.622;10.420;2023-06-10T10:28:48;6.63;;;5.80;;
45296;SDS011;31040;51.622;10.420;2023-06-10T10:31:18;5.78;;;5.32;;
45296;SDS011;31040;51.622;10.420;2023-06-10T10:33:52;5.82;;;5.30;;
45296;SDS011;31040;51.622;10.420;2023-06-10T10:36:23;6.68;;;6.13;;
45296;SDS011;31040;51.622;10.420;2023-06-10T10:38:50;6.93;;;6.28;;
45296;SDS011;31040;51.622;10.420;2023-06-10T10:41:18;6.18;;;5.57;;
45296;SDS011;31040;51.622;10.420;2023-06-10T10:43:47;9.27;;;6.43;;
45296;SDS011;31040;51.622;10.420;2023-06-10T10:46:16;6.00;;;5.25;;
45296;SDS011;31040;51.622;10.420;2023-06-10T10:48:44;6.40;;;5.78;;
45296;SDS011;31040;51.622;10.420;2023-06-10T10:51:11;6.80;;;6.13;;
45296;SDS011;31040;51.622;10.420;2023-06-10T10:53:39;7.50;;;6.10;;
45296;SDS011;31040;51.622;10.420;2023-06-10T10:56:07;7.18;;;6.47;;
45296;SDS011;31040;51.622;10.420;2023-06-10T10:58:39;6.45;;;5.85;;
45296;SDS011;31040;51.622;10.420;2023-06-10T11:01:10;7.20;;;6.47;;
45296;SDS011;31040;51.622;10.420;2023-06-10T11:03:44;9.15;;;7.00;;
45296;SDS011;31040;51.622;10.420;2023-06-10T11:06:14;8.07;;;6.90;;
45296;SDS011;31040;51.622;10.420;2023-06-10T11:11:26;7.00;;;5.82;;
45296;SDS011;31040;51.622;10.420;2023-06-10T11:13:58;6.90;;;6.20;;
45296;SDS011;31040;51.622;10.420;2023-06-10T11:16:27;7.95;;;6.40;;
45296;SDS011;31040;51.622;10.420;2023-06-10T11:18:55;7.07;;;6.40;;
45296;SDS011;31040;51.622;10.420;2023-06-10T11:21:23;6.97;;;6.15;;
45296;SDS011;31040;51.622;10.420;2023-06-10T11:23:57;6.85;;;6.30;;
45296;SDS011;31040;51.622;10.420;2023-06-10T11:29:05;6.63;;;6.03;;
45296;SDS011;31040;51.622;10.420;2023-06-10T11:31:38;7.55;;;6.10;;
45296;SDS011;31040;51.622;10.420;2023-06-10T11:34:07;6.80;;;6.07;;
45296;SDS011;31040;51.622;10.420;2023-06-10T11:36:38;18.65;;;6.82;;
45296;SDS011;31040;51.622;10.420;2023-06-10T11:39:07;6.03;;;5.43;;
45296;SDS011;31040;51.622;10.420;2023-06-10T11:41:35;6.03;;;5.30;;
45296;SDS011;31040;51.622;10.420;2023-06-10T11:44:03;5.28;;;4.78;;
45296;SDS011;31040;51.622;10.420;2023-06-10T11:46:33;5.80;;;4.75;;
45296;SDS011;31040;51.622;10.420;2023-06-10T11:51:36;11.20;;;5.23;;
45296;SDS011;31040;51.622;10.420;2023-06-10T11:54:05;5.60;;;4.93;;
45296;SDS011;31040;51.622;10.420;2023-06-10T11:59:06;5.37;;;4.43;;
45296;SDS011;31040;51.622;10.420;2023-06-10T12:01:35;4.63;;;4.22;;
45296;SDS011;31040;51.622;10.420;2023-06-10T12:04:10;4.65;;;4.25;;
45296;SDS011;31040;51.622;10.420;2023-06-10T12:06:50;5.03;;;4.40;;
45296;SDS011;31040;51.622;10.420;2023-06-10T12:11:49;5.57;;;4.88;;
45296;SDS011;31040;51.622;10.420;2023-06-10T12:14:49;5.32;;;4.85;;
45296;SDS011;31040;51.622;10.420;2023-06-10T12:17:04;5.00;;;4.60;;
45296;SDS011;31040;51.622;10.420;2023-06-10T12:19:37;4.80;;;4.38;;
45296;SDS011;31040;51.622;10.420;2023-06-10T12:22:06;5.35;;;4.85;;
45296;SDS011;31040;51.622;10.420;2023-06-10T12:24:43;5.50;;;5.00;;
45296;SDS011;31040;51.622;10.420;2023-06-10T12:27:11;4.97;;;4.47;;
45296;SDS011;31040;51.622;10.420;2023-06-10T12:29:39;5.18;;;4.63;;
45296;SDS011;31040;51.622;10.420;2023-06-10T12:32:18;5.45;;;4.97;;
45296;SDS011;31040;51.622;10.420;2023-06-10T12:34:46;4.80;;;4.40;;
45296;SDS011;31040;51.622;10.420;2023-06-10T12:37:14;5.20;;;4.30;;
45296;SDS011;31040;51.622;10.420;2023-06-10T12:39:43;5.55;;;5.05;;
45296;SDS011;31040;51.622;10.420;2023-06-10T12:42:21;5.13;;;4.63;;
45296;SDS011;31040;51.622;10.420;2023-06-10T12:44:52;4.43;;;4.13;;
45296;SDS011;31040;51.622;10.420;2023-06-10T12:47:21;4.80;;;4.28;;
45296;SDS011;31040;51.622;10.420;2023-06-10T12:52:23;4.93;;;4.53;;
45296;SDS011;31040;51.622;10.420;2023-06-10T12:54:50;5.68;;;4.95;;
45296;SDS011;31040;51.622;10.420;2023-06-10T12:57:18;4.70;;;4.30;;
45296;SDS011;31040;51.622;10.420;2023-06-10T12:59:46;5.60;;;5.13;;
45296;SDS011;31040;51.622;10.420;2023-06-10T13:02:19;5.13;;;4.57;;
45296;SDS011;31040;51.622;10.420;2023-06-10T13:04:47;5.60;;;5.10;;
45296;SDS011;31040;51.622;10.420;2023-06-10T13:07:14;5.63;;;4.68;;
45296;SDS011;31040;51.622;10.420;2023-06-10T13:09:42;5.93;;;5.32;;
45296;SDS011;31040;51.622;10.420;2023-06-10T13:12:10;4.90;;;4.40;;
45296;SDS011;31040;51.622;10.420;2023-06-10T13:14:42;5.63;;;5.13;;
45296;SDS011;31040;51.622;10.420;2023-06-10T13:17:09;5.28;;;4.85;;
45296;SDS011;31040;51.622;10.420;2023-06-10T13:19:37;5.43;;;4.90;;
45296;SDS011;31040;51.622;10.420;2023-06-10T13:22:04;28.60;;;6.10;;
45296;SDS011;31040;51.622;10.420;2023-06-10T13:24:32;4.97;;;4.57;;
45296;SDS011;31040;51.622;10.420;2023-06-10T13:26:59;5.53;;;5.03;;
45296;SDS011;31040;51.622;10.420;2023-06-10T13:29:27;4.80;;;4.40;;
45296;SDS011;31040;51.622;10.420;2023-06-10T13:31:54;12.40;;;5.00;;
45296;SDS011;31040;51.622;10.420;2023-06-10T13:34:21;8.27;;;5.35;;
45296;SDS011;31040;51.622;10.420;2023-06-10T13:36:49;5.28;;;4.53;;
45296;SDS011;31040;51.622;10.420;2023-06-10T13:39:16;6.07;;;4.60;;
45296;SDS011;31040;51.622;10.420;2023-06-10T13:41:44;5.95;;;5.40;;
45296;SDS011;31040;51.622;10.420;2023-06-10T13:44:11;5.78;;;5.28;;
45296;SDS011;31040;51.622;10.420;2023-06-10T13:46:38;4.85;;;4.40;;
45296;SDS011;31040;51.622;10.420;2023-06-10T13:49:06;5.50;;;5.07;;
45296;SDS011;31040;51.622;10.420;2023-06-10T13:51:34;6.30;;;5.70;;
45296;SDS011;31040;51.622;10.420;2023-06-10T13:54:01;5.88;;;5.30;;
45296;SDS011;31040;51.622;10.420;2023-06-10T13:56:29;5.60;;;5.10;;
45296;SDS011;31040;51.622;10.420;2023-06-10T13:58:56;5.45;;;5.05;;
45296;SDS011;31040;51.622;10.420;2023-06-10T14:01:27;6.38;;;5.78;;
45296;SDS011;31040;51.622;10.420;2023-06-10T14:03:55;5.32;;;4.93;;
45296;SDS011;31040;51.622;10.420;2023-06-10T14:06:22;5.95;;;5.35;;
45296;SDS011;31040;51.622;10.420;2023-06-10T14:08:50;7.28;;;5.45;;
45296;SDS011;31040;51.622;10.420;2023-06-10T14:11:17;7.00;;;6.03;;
45296;SDS011;31040;51.622;10.420;2023-06-10T14:13:45;6.15;;;5.60;;
45296;SDS011;31040;51.622;10.420;2023-06-10T14:16:12;6.72;;;5.80;;
45296;SDS011;31040;51.622;10.420;2023-06-10T14:18:40;5.85;;;5.35;;
45296;SDS011;31040;51.622;10.420;2023-06-10T14:21:07;5.88;;;5.20;;
45296;SDS011;31040;51.622;10.420;2023-06-10T14:23:34;7.03;;;5.70;;
45296;SDS011;31040;51.622;10.420;2023-06-10T14:26:02;6.40;;;5.63;;
45296;SDS011;31040;51.622;10.420;2023-06-10T14:28:29;6.68;;;6.00;;
45296;SDS011;31040;51.622;10.420;2023-06-10T14:30:57;6.05;;;5.28;;
45296;SDS011;31040;51.622;10.420;2023-06-10T14:33:24;6.45;;;5.78;;
45296;SDS011;31040;51.622;10.420;2023-06-10T14:35:51;6.20;;;5.70;;
45296;SDS011;31040;51.622;10.420;2023-06-10T14:38:19;7.13;;;5.90;;
45296;SDS011;31040;51.622;10.420;2023-06-10T14:40:46;7.75;;;6.35;;
45296;SDS011;31040;51.622;10.420;2023-06-10T14:43:14;5.57;;;5.07;;
45296;SDS011;31040;51.622;10.420;2023-06-10T14:45:41;7.60;;;5.50;;
45296;SDS011;31040;51.622;10.420;2023-06-10T14:48:09;7.35;;;5.47;;
45296;SDS011;31040;51.622;10.420;2023-06-10T14:50:37;5.45;;;5.05;;
45296;SDS011;31040;51.622;10.420;2023-06-10T14:53:06;18.77;;;6.47;;
45296;SDS011;31040;51.622;10.420;2023-06-10T14:55:34;5.53;;;4.88;;
45296;SDS011;31040;51.622;10.420;2023-06-10T14:58:01;7.78;;;5.80;;
45296;SDS011;31040;51.622;10.420;2023-06-10T15:00:29;6.72;;;6.13;;
45296;SDS011;31040;51.622;10.420;2023-06-10T15:02:56;9.10;;;6.10;;
45296;SDS011;31040;51.622;10.420;2023-06-10T15:05:24;6.35;;;5.60;;
45296;SDS011;31040;51.622;10.420;2023-06-10T15:07:51;5.80;;;5.28;;
45296;SDS011;31040;51.622;10.420;2023-06-10T15:10:19;5.63;;;5.13;;